Time;durP1;ratioP1;P1;durP2;ratioP2;P2;SDS_P1;SDS_P2;PMS_P1;PMS_P2;Temp;Humidity;BMP_temperature;BMP_pressure;BME280_temperature;BME280_humidity;BME280_pressure;Samples;Min_cycle;Max_cycle;Signal;HPM_P1;HPM_P2
2023/10/28 00:01:31;;;;;;;;;;;;;;;;;;5054954;28;19998;-72
2023/10/28 00:03:57;;;;;;;;;;;;;;;;;;5054092;28;20000;-74
2023/10/28 00:06:23;;;;;;;;;;;;;;;;;;5054701;28;19997;-74
2023/10/28 00:08:49;;;;;;;;;;;;;;;;;;5054585;28;19991;-73
2023/10/28 00:11:19;;;;;;;;;;;;;;;;;;5054155;28;20512;-74
2023/10/28 00:13:45;;;;;;;;;;;;;;;;;;5054555;28;19989;-74
2023/10/28 00:16:11;;;;;;;;;;;;;;;;;;5054491;28;20001;-74
2023/10/28 00:18:37;;;;;;;;;;;;;;;;;;5054335;28;19986;-74
2023/10/28 00:21:03;;;;;;;;;;;;;;;;;;5053784;28;20001;-73
2023/10/28 00:23:31;;;;;;;;;;;;;;;;;;5054178;28;19990;-74
2023/10/28 00:25:57;;;;;;;;;;;;;;;;;;5054236;28;20093;-72
2023/10/28 00:28:23;;;;;;;;;;;;;;;;;;5054180;28;20073;-74
2023/10/28 00:30:50;;;;;;;;;;;;;;;;;;5054274;28;20018;-75
2023/10/28 00:33:17;;;;;;;;;;;;;;;;;;5053638;28;20041;-75
2023/10/28 00:35:44;;;;;;;;;;;;;;;;;;5053989;28;20036;-83
2023/10/28 00:38:10;;;;;;;;;;;;;;;;;;5054316;28;19990;-78
2023/10/28 00:40:36;;;;;;;;;;;;;;;;;;5054045;28;20002;-76
2023/10/28 00:43:02;;;;;;;;;;;;;;;;;;5053297;28;19993;-80
2023/10/28 00:45:28;;;;;;;;;;;;;;;;;;5054054;28;19990;-82
2023/10/28 00:47:54;;;;;;;;;;;;;;;;;;5054750;28;19985;-79
2023/10/28 00:50:21;;;;;;;;;;;;;;;;;;5035319;28;20009;-73
2023/10/28 00:52:49;;;;;;;;;;;;;;;;;;5053908;28;20020;-74
2023/10/28 00:55:15;;;;;;;;;;;;;;;;;;5053465;28;20454;-72
2023/10/28 00:57:41;;;;;;;;;;;;;;;;;;5053844;28;19997;-74
2023/10/28 01:00:07;;;;;;;;;;;;;;;;;;5053645;28;20085;-72
2023/10/28 01:02:33;;;;;;;;;;;;;;;;;;5053558;28;20028;-72
2023/10/28 01:04:59;;;;;;;;;;;;;;;;;;5053464;28;20021;-72
2023/10/28 01:07:25;;;;;;;;;;;;;;;;;;5053326;28;20088;-71
2023/10/28 01:09:51;;;;;;;;;;;;;;;;;;5052529;28;20480;-71
2023/10/28 01:12:17;;;;;;;;;;;;;;;;;;5053448;28;19989;-69
2023/10/28 01:14:43;;;;;;;;;;;;;;;;;;5053627;28;19994;-71
2023/10/28 01:17:09;;;;;;;;;;;;;;;;;;5053060;28;20365;-71
2023/10/28 01:19:35;;;;;;;;;;;;;;;;;;5053182;28;19990;-70
2023/10/28 01:22:01;;;;;;;;;;;;;;;;;;5053171;28;20345;-71
2023/10/28 01:24:32;;;;;;;;;;;;;;;;;;5052446;28;19994;-70
2023/10/28 01:26:59;;;;;;;;;;;;;;;;;;5053403;28;19990;-73
2023/10/28 01:29:25;;;;;;;;;;;;;;;;;;5052941;28;20029;-73
2023/10/28 01:31:51;;;;;;;;;;;;;;;;;;5052736;28;20063;-73
2023/10/28 01:34:17;;;;;;;;;;;;;;;;;;5053033;28;19986;-75
2023/10/28 01:36:45;;;;;;;;;;;;;;;;;;5052917;28;19989;-72
2023/10/28 01:39:15;;;;;;;;;;;;;;;;;;5052865;28;19994;-70
2023/10/28 01:41:41;;;;;;;;;;;;;;;;;;5052272;28;20103;-72
2023/10/28 01:44:07;;;;;;;;;;;;;;;;;;5052647;28;20450;-73
2023/10/28 01:46:33;;;;;;;;;;;;;;;;;;5052611;28;20020;-74
2023/10/28 01:48:59;;;;;;;;;;;;;;;;;;5052570;28;20080;-73
2023/10/28 01:51:25;;;;;;;;;;;;;;;;;;5052344;28;20042;-72
2023/10/28 01:53:51;;;;;;;;;;;;;;;;;;5052011;28;19986;-71
2023/10/28 01:56:17;;;;;;;;;;;;;;;;;;5051442;28;20016;-71
2023/10/28 01:58:43;;;;;;;;;;;;;;;;;;5052504;28;19994;-71
2023/10/28 02:01:09;;;;;;;;;;;;;;;;;;5052412;28;19997;-71
2023/10/28 02:03:35;;;;;;;;;;;;;;;;;;5052337;28;19986;-72
2023/10/28 02:06:01;;;;;;;;;;;;;;;;;;5052126;28;19989;-72
2023/10/28 02:08:27;;;;;;;;;;;;;;;;;;5052016;28;19993;-72
2023/10/28 02:10:53;;;;;;;;;;;;;;;;;;5051851;28;20022;-72
2023/10/28 02:13:20;;;;;;;;;;;;;;;;;;5051649;28;19994;-73
2023/10/28 02:15:46;;;;;;;;;;;;;;;;;;5051961;28;20036;-72
2023/10/28 02:18:12;;;;;;;;;;;;;;;;;;5051976;28;19985;-73
2023/10/28 02:20:39;;;;;;;;;;;;;;;;;;5051959;28;20051;-71
2023/10/28 02:23:08;;;;;;;;;;;;;;;;;;5052007;28;19993;-70
2023/10/28 02:25:34;;;;;;;;;;;;;;;;;;5052066;28;20091;-70
2023/10/28 02:28:00;;;;;;;;;;;;;;;;;;5051284;28;20071;-72
2023/10/28 02:30:26;;;;;;;;;;;;;;;;;;5051671;28;20068;-71
2023/10/28 02:32:54;;;;;;;;;;;;;;;;;;5051709;28;20450;-70
2023/10/28 02:35:20;;;;;;;;;;;;;;;;;;5033745;28;19990;-71
2023/10/28 02:37:46;;;;;;;;;;;;;;;;;;5051677;28;20099;-76
2023/10/28 02:40:12;;;;;;;;;;;;;;;;;;5051922;28;20453;-77
2023/10/28 02:42:38;;;;;;;;;;;;;;;;;;5051902;28;20021;-79
2023/10/28 02:45:07;;;;;;;;;;;;;;;;;;5051338;28;20092;-77
2023/10/28 02:47:33;;;;;;;;;;;;;;;;;;5033875;28;19989;-74
2023/10/28 02:49:59;;;;;;;;;;;;;;;;;;5051471;28;20468;-75
2023/10/28 02:52:25;;;;;;;;;;;;;;;;;;5052066;28;19994;-79
2023/10/28 02:54:52;;;;;;;;;;;;;;;;;;5051973;28;20479;-88
2023/10/28 02:57:17;;;;;;;;;;;;;;;;;;5033608;28;19997;-78
2023/10/28 02:59:44;;;;;;;;;;;;;;;;;;5051667;28;20092;-77
2023/10/28 03:02:10;;;;;;;;;;;;;;;;;;5050995;28;20053;-75
2023/10/28 03:04:36;;;;;;;;;;;;;;;;;;5051419;28;19996;-74
2023/10/28 03:07:02;;;;;;;;;;;;;;;;;;5051163;28;20036;-73
2023/10/28 03:09:30;;;;;;;;;;;;;;;;;;5051656;28;19990;-73
2023/10/28 03:11:56;;;;;;;;;;;;;;;;;;5051462;28;20016;-71
2023/10/28 03:14:22;;;;;;;;;;;;;;;;;;5051133;28;19986;-72
2023/10/28 03:16:48;;;;;;;;;;;;;;;;;;5060083;28;19989;-72
2023/10/28 03:19:14;;;;;;;;;;;;;;;;;;5062518;28;20026;-72
2023/10/28 03:21:40;;;;;;;;;;;;;;;;;;5051375;28;20134;-73
2023/10/28 03:24:06;;;;;;;;;;;;;;;;;;5051327;28;20483;-72
2023/10/28 03:26:32;;;;;;;;;;;;;;;;;;5051393;28;20051;-73
2023/10/28 03:28:59;;;;;;;;;;;;;;;;;;5051089;28;20392;-73
2023/10/28 03:31:26;;;;;;;;;;;;;;;;;;5051323;28;20039;-69
2023/10/28 03:33:52;;;;;;;;;;;;;;;;;;5051046;28;20012;-71
2023/10/28 03:36:17;;;;;;;;;;;;;;;;;;5050407;28;19990;-70
2023/10/28 03:38:43;;;;;;;;;;;;;;;;;;5051293;28;20004;-72
2023/10/28 03:41:09;;;;;;;;;;;;;;;;;;5050911;28;20009;-70
2023/10/28 03:43:35;;;;;;;;;;;;;;;;;;5051128;28;19989;-69
2023/10/28 03:46:01;;;;;;;;;;;;;;;;;;5050983;28;19986;-70
2023/10/28 03:48:28;;;;;;;;;;;;;;;;;;5050749;28;19986;-69
2023/10/28 03:50:54;;;;;;;;;;;;;;;;;;5051059;28;19993;-68
2023/10/28 03:53:20;;;;;;;;;;;;;;;;;;5050789;28;20323;-70
2023/10/28 03:55:46;;;;;;;;;;;;;;;;;;5050275;28;19996;-70
2023/10/28 03:58:12;;;;;;;;;;;;;;;;;;5050801;28;19997;-69
2023/10/28 04:00:38;;;;;;;;;;;;;;;;;;5050436;28;20012;-69
2023/10/28 04:03:04;;;;;;;;;;;;;;;;;;5050664;28;19997;-69
2023/10/28 04:05:30;;;;;;;;;;;;;;;;;;5050705;28;19990;-70
2023/10/28 04:07:56;;;;;;;;;;;;;;;;;;5050759;28;20441;-71
2023/10/28 04:10:23;;;;;;;;;;;;;;;;;;5050338;28;20026;-70
2023/10/28 04:12:50;;;;;;;;;;;;;;;;;;5058171;28;20001;-70
2023/10/28 04:15:18;;;;;;;;;;;;;;;;;;5052433;28;19997;-69
2023/10/28 04:17:44;;;;;;;;;;;;;;;;;;5071457;28;20079;-70
2023/10/28 04:20:10;;;;;;;;;;;;;;;;;;5074738;28;20433;-68
2023/10/28 04:22:36;;;;;;;;;;;;;;;;;;5074022;28;19997;-69
2023/10/28 04:25:02;;;;;;;;;;;;;;;;;;5074146;28;19989;-69
2023/10/28 04:27:29;;;;;;;;;;;;;;;;;;5074173;28;20449;-68
2023/10/28 04:29:54;;;;;;;;;;;;;;;;;;5067975;28;20456;-68
2023/10/28 04:32:22;;;;;;;;;;;;;;;;;;5059262;28;20055;-69
2023/10/28 04:34:49;;;;;;;;;;;;;;;;;;5073850;28;20399;-69
2023/10/28 04:37:15;;;;;;;;;;;;;;;;;;5073829;28;19990;-68
2023/10/28 04:39:41;;;;;;;;;;;;;;;;;;5073987;28;20168;-69
2023/10/28 04:42:10;;;;;;;;;;;;;;;;;;5055651;28;20079;-69
2023/10/28 04:44:36;;;;;;;;;;;;;;;;;;5070736;28;19989;-69
2023/10/28 04:47:01;;;;;;;;;;;;;;;;;;5055929;28;20531;-69
2023/10/28 04:49:27;;;;;;;;;;;;;;;;;;5073813;28;20051;-69
2023/10/28 04:51:54;;;;;;;;;;;;;;;;;;5073733;28;20017;-68
2023/10/28 04:54:20;;;;;;;;;;;;;;;;;;5073299;28;19989;-69
2023/10/28 04:56:46;;;;;;;;;;;;;;;;;;5073519;28;20030;-69
2023/10/28 04:59:12;;;;;;;;;;;;;;;;;;5073685;28;20011;-68
2023/10/28 05:01:38;;;;;;;;;;;;;;;;;;5057283;28;19994;-69
2023/10/28 05:04:04;;;;;;;;;;;;;;;;;;5059514;28;20091;-68
2023/10/28 05:06:30;;;;;;;;;;;;;;;;;;5073349;28;20020;-69
2023/10/28 05:08:56;;;;;;;;;;;;;;;;;;5073325;28;20012;-69
2023/10/28 05:11:22;;;;;;;;;;;;;;;;;;5072873;28;20027;-69
2023/10/28 05:13:48;;;;;;;;;;;;;;;;;;5065822;28;20051;-68
2023/10/28 05:16:14;;;;;;;;;;;;;;;;;;5067402;28;20331;-68
2023/10/28 05:18:40;;;;;;;;;;;;;;;;;;5056224;28;20594;-69
2023/10/28 05:21:06;;;;;;;;;;;;;;;;;;5073200;28;19985;-70
2023/10/28 05:23:32;;;;;;;;;;;;;;;;;;5073194;28;19985;-70
2023/10/28 05:25:58;;;;;;;;;;;;;;;;;;5072806;28;20449;-69
2023/10/28 05:28:24;;;;;;;;;;;;;;;;;;5071117;28;20072;-70
2023/10/28 05:30:50;;;;;;;;;;;;;;;;;;5072038;28;20599;-69
2023/10/28 05:33:16;;;;;;;;;;;;;;;;;;5070719;28;20062;-70
2023/10/28 05:35:42;;;;;;;;;;;;;;;;;;5070809;28;19993;-69
2023/10/28 05:38:10;;;;;;;;;;;;;;;;;;5072677;28;20033;-70
2023/10/28 05:40:36;;;;;;;;;;;;;;;;;;5072581;28;20000;-70
2023/10/28 05:43:02;;;;;;;;;;;;;;;;;;5072473;28;20369;-70
2023/10/28 05:45:28;;;;;;;;;;;;;;;;;;5072658;28;19994;-69
2023/10/28 05:47:55;;;;;;;;;;;;;;;;;;5054582;28;19990;-71
2023/10/28 05:50:21;;;;;;;;;;;;;;;;;;5061463;28;20028;-70
2023/10/28 05:52:47;;;;;;;;;;;;;;;;;;5052459;28;20096;-70
2023/10/28 05:55:13;;;;;;;;;;;;;;;;;;5064759;28;19994;-69
2023/10/28 05:57:39;;;;;;;;;;;;;;;;;;5071405;28;20485;-69
2023/10/28 06:00:09;;;;;;;;;;;;;;;;;;5071825;28;20076;-69
2023/10/28 06:02:36;;;;;;;;;;;;;;;;;;5071647;28;19989;-71
2023/10/28 06:05:03;;;;;;;;;;;;;;;;;;5063614;28;20047;-70
2023/10/28 06:07:29;;;;;;;;;;;;;;;;;;5051854;28;19997;-69
2023/10/28 06:09:55;;;;;;;;;;;;;;;;;;5051289;28;20022;-69
2023/10/28 06:12:21;;;;;;;;;;;;;;;;;;5052225;28;20059;-69
2023/10/28 06:14:47;;;;;;;;;;;;;;;;;;5052112;28;20377;-70
2023/10/28 06:17:13;;;;;;;;;;;;;;;;;;5052346;28;19990;-70
2023/10/28 06:19:40;;;;;;;;;;;;;;;;;;5052197;28;20040;-81
2023/10/28 06:22:06;;;;;;;;;;;;;;;;;;5060512;28;20034;-78
2023/10/28 06:24:32;;;;;;;;;;;;;;;;;;5055180;28;20609;-81
2023/10/28 06:26:59;;;;;;;;;;;;;;;;;;5051876;28;19990;-78
2023/10/28 06:29:25;;;;;;;;;;;;;;;;;;5051829;28;20428;-87
2023/10/28 06:31:51;;;;;;;;;;;;;;;;;;5047320;28;20013;-83
2023/10/28 06:34:17;;;;;;;;;;;;;;;;;;5070838;28;20000;-81
2023/10/28 06:36:43;;;;;;;;;;;;;;;;;;5071711;28;19994;-77
2023/10/28 06:39:09;;;;;;;;;;;;;;;;;;5052595;28;20096;-76
2023/10/28 06:41:35;;;;;;;;;;;;;;;;;;5050756;28;20081;-76
2023/10/28 06:44:06;;;;;;;;;;;;;;;;;;5051586;28;20011;-73
2023/10/28 06:46:32;;;;;;;;;;;;;;;;;;5051472;28;20405;-73
2023/10/28 06:48:57;;;;;;;;;;;;;;;;;;5051423;28;19993;-72
2023/10/28 06:51:23;;;;;;;;;;;;;;;;;;5051029;28;20104;-72
2023/10/28 06:53:49;;;;;;;;;;;;;;;;;;5051220;28;19986;-73
2023/10/28 06:56:15;;;;;;;;;;;;;;;;;;5050653;28;19994;-72
2023/10/28 06:58:41;;;;;;;;;;;;;;;;;;5051184;28;19986;-72
2023/10/28 07:01:09;;;;;;;;;;;;;;;;;;5050532;28;19997;-72
2023/10/28 07:03:37;;;;;;;;;;;;;;;;;;5050948;28;19986;-71
2023/10/28 07:06:04;;;;;;;;;;;;;;;;;;5051268;28;20017;-71
2023/10/28 07:08:29;;;;;;;;;;;;;;;;;;5050821;28;20084;-71
2023/10/28 07:10:56;;;;;;;;;;;;;;;;;;5050791;28;20120;-70
2023/10/28 07:13:22;;;;;;;;;;;;;;;;;;5051041;28;19997;-70
2023/10/28 07:15:48;;;;;;;;;;;;;;;;;;5050970;28;20454;-70
2023/10/28 07:18:14;;;;;;;;;;;;;;;;;;5050399;28;20492;-69
2023/10/28 07:20:40;;;;;;;;;;;;;;;;;;5051026;28;19989;-68
2023/10/28 07:23:06;;;;;;;;;;;;;;;;;;5050827;28;19993;-67
2023/10/28 07:25:32;;;;;;;;;;;;;;;;;;5051064;28;19994;-72
2023/10/28 07:27:58;;;;;;;;;;;;;;;;;;5050546;28;19989;-73
2023/10/28 07:30:24;;;;;;;;;;;;;;;;;;5050989;28;20071;-77
2023/10/28 07:32:50;;;;;;;;;;;;;;;;;;5051018;28;20092;-75
2023/10/28 07:35:19;;;;;;;;;;;;;;;;;;5049005;28;20411;-73
2023/10/28 07:37:46;;;;;;;;;;;;;;;;;;5049457;28;20434;-72
2023/10/28 07:40:12;;;;;;;;;;;;;;;;;;5049326;28;19990;-73
2023/10/28 07:42:38;;;;;;;;;;;;;;;;;;5049389;28;20036;-70
2023/10/28 07:45:04;;;;;;;;;;;;;;;;;;5049412;28;19990;-69
2023/10/28 07:47:33;;;;;;;;;;;;;;;;;;5050122;28;20541;-68
2023/10/28 07:49:59;;;;;;;;;;;;;;;;;;5049914;28;19996;-68
2023/10/28 07:52:26;;;;;;;;;;;;;;;;;;5050390;28;20014;-67
2023/10/28 07:54:52;;;;;;;;;;;;;;;;;;5037499;28;20419;-67
2023/10/28 07:57:18;;;;;;;;;;;;;;;;;;5063937;28;19997;-68
2023/10/28 07:59:44;;;;;;;;;;;;;;;;;;5056741;28;19997;-69
2023/10/28 08:02:11;;;;;;;;;;;;;;;;;;5056613;28;19994;-69
2023/10/28 08:04:37;;;;;;;;;;;;;;;;;;5054266;28;20024;-68
2023/10/28 08:07:03;;;;;;;;;;;;;;;;;;5060519;28;20473;-67
2023/10/28 08:09:29;;;;;;;;;;;;;;;;;;5062583;28;20392;-68
2023/10/28 08:11:56;;;;;;;;;;;;;;;;;;5061513;28;20017;-72
2023/10/28 08:14:22;;;;;;;;;;;;;;;;;;5073950;28;19989;-71
2023/10/28 08:16:48;;;;;;;;;;;;;;;;;;5074111;28;19989;-67
2023/10/28 08:19:15;;;;;;;;;;;;;;;;;;5074367;28;19989;-69
2023/10/28 08:21:41;;;;;;;;;;;;;;;;;;5074288;28;20372;-68
2023/10/28 08:24:08;;;;;;;;;;;;;;;;;;5074119;28;20322;-67
2023/10/28 08:26:34;;;;;;;;;;;;;;;;;;5074061;28;19986;-68
2023/10/28 08:29:00;;;;;;;;;;;;;;;;;;5069885;28;20011;-68
2023/10/28 08:31:28;;;;;;;;;;;;;;;;;;5054122;28;20100;-67
2023/10/28 08:33:54;;;;;;;;;;;;;;;;;;5053781;28;20163;-67
2023/10/28 08:36:20;;;;;;;;;;;;;;;;;;5075062;28;20500;-67
2023/10/28 08:38:47;;;;;;;;;;;;;;;;;;5070539;28;20059;-67
2023/10/28 08:41:16;;;;;;;;;;;;;;;;;;5054076;28;20368;-66
2023/10/28 08:43:42;;;;;;;;;;;;;;;;;;5053825;28;19986;-68
2023/10/28 08:46:08;;;;;;;;;;;;;;;;;;5053140;28;20002;-66
2023/10/28 08:48:34;;;;;;;;;;;;;;;;;;5053555;28;20420;-67
2023/10/28 08:51:00;;;;;;;;;;;;;;;;;;5053164;28;20024;-67
2023/10/28 08:53:26;;;;;;;;;;;;;;;;;;5053642;28;20008;-67
2023/10/28 08:55:52;;;;;;;;;;;;;;;;;;5053755;28;20513;-68
2023/10/28 08:58:18;;;;;;;;;;;;;;;;;;5053426;28;20064;-69
2023/10/28 09:00:44;;;;;;;;;;;;;;;;;;5053442;28;20024;-70
2023/10/28 09:03:10;;;;;;;;;;;;;;;;;;5053566;28;20033;-67
2023/10/28 09:05:38;;;;;;;;;;;;;;;;;;5052680;28;20121;-69
2023/10/28 09:08:04;;;;;;;;;;;;;;;;;;5053716;28;20085;-68
2023/10/28 09:10:30;;;;;;;;;;;;;;;;;;5052901;28;20116;-69
2023/10/28 09:12:56;;;;;;;;;;;;;;;;;;5053060;28;19985;-69
2023/10/28 09:15:22;;;;;;;;;;;;;;;;;;5053133;28;19986;-68
2023/10/28 09:17:48;;;;;;;;;;;;;;;;;;5053294;28;19990;-69
2023/10/28 09:20:14;;;;;;;;;;;;;;;;;;5053243;28;19985;-69
2023/10/28 09:22:40;;;;;;;;;;;;;;;;;;5052396;28;20067;-70
2023/10/28 09:25:06;;;;;;;;;;;;;;;;;;5052980;28;19994;-70
2023/10/28 09:27:32;;;;;;;;;;;;;;;;;;5053067;28;19986;-71
2023/10/28 09:29:58;;;;;;;;;;;;;;;;;;5052917;28;19993;-71
2023/10/28 09:32:24;;;;;;;;;;;;;;;;;;5052940;28;20037;-72
2023/10/28 09:34:50;;;;;;;;;;;;;;;;;;5053005;28;19990;-72
2023/10/28 09:37:16;;;;;;;;;;;;;;;;;;5053230;28;19985;-72
2023/10/28 09:39:47;;;;;;;;;;;;;;;;;;5052310;28;20489;-73
2023/10/28 09:42:13;;;;;;;;;;;;;;;;;;5034814;28;19989;-72
2023/10/28 09:44:39;;;;;;;;;;;;;;;;;;5052886;28;20016;-72
2023/10/28 09:47:05;;;;;;;;;;;;;;;;;;5052847;28;19997;-73
2023/10/28 09:49:31;;;;;;;;;;;;;;;;;;5052669;28;19986;-72
2023/10/28 09:51:57;;;;;;;;;;;;;;;;;;5052566;28;20163;-73
2023/10/28 09:54:23;;;;;;;;;;;;;;;;;;5052656;28;19985;-73
2023/10/28 09:56:51;;;;;;;;;;;;;;;;;;5055546;28;19993;-72
2023/10/28 09:59:19;;;;;;;;;;;;;;;;;;5072248;28;19990;-73
2023/10/28 10:01:45;;;;;;;;;;;;;;;;;;5072346;28;20009;-73
2023/10/28 10:04:11;;;;;;;;;;;;;;;;;;5066410;28;19990;-73
2023/10/28 10:06:37;;;;;;;;;;;;;;;;;;5066712;28;20482;-71
2023/10/28 10:09:04;;;;;;;;;;;;;;;;;;5072372;28;19985;-73
2023/10/28 10:11:30;;;;;;;;;;;;;;;;;;5072061;28;20426;-70
2023/10/28 10:13:56;;;;;;;;;;;;;;;;;;5055412;28;20105;-70
2023/10/28 10:16:22;;;;;;;;;;;;;;;;;;5051647;28;19990;-71
2023/10/28 10:18:49;;;;;;;;;;;;;;;;;;5052138;28;20027;-73
2023/10/28 10:21:18;;;;;;;;;;;;;;;;;;5053302;28;20043;-71
2023/10/28 10:23:44;;;;;;;;;;;;;;;;;;5071398;28;20012;-71
2023/10/28 10:26:10;;;;;;;;;;;;;;;;;;5069904;28;19989;-70
2023/10/28 10:28:36;;;;;;;;;;;;;;;;;;5071929;28;19992;-70
2023/10/28 10:31:03;;;;;;;;;;;;;;;;;;5052176;28;20077;-70
2023/10/28 10:33:30;;;;;;;;;;;;;;;;;;5051885;28;20059;-71
2023/10/28 10:35:56;;;;;;;;;;;;;;;;;;5051962;28;19985;-71
2023/10/28 10:38:21;;;;;;;;;;;;;;;;;;5051818;28;19986;-70
2023/10/28 10:40:47;;;;;;;;;;;;;;;;;;5051793;28;20036;-69
2023/10/28 10:43:13;;;;;;;;;;;;;;;;;;5051929;28;19997;-70
2023/10/28 10:45:39;;;;;;;;;;;;;;;;;;5051644;28;20072;-70
2023/10/28 10:48:07;;;;;;;;;;;;;;;;;;5051264;28;19993;-68
2023/10/28 10:50:33;;;;;;;;;;;;;;;;;;5033653;28;20014;-68
2023/10/28 10:52:59;;;;;;;;;;;;;;;;;;5054145;28;19990;-68
2023/10/28 10:55:28;;;;;;;;;;;;;;;;;;5061550;28;20502;-66
2023/10/28 10:57:54;;;;;;;;;;;;;;;;;;5071274;28;19988;-69
2023/10/28 11:00:20;;;;;;;;;;;;;;;;;;5071586;28;19993;-68
2023/10/28 11:02:46;;;;;;;;;;;;;;;;;;5067988;28;20000;-68
2023/10/28 11:05:12;;;;;;;;;;;;;;;;;;5051660;28;19986;-67
2023/10/28 11:07:38;;;;;;;;;;;;;;;;;;5051228;28;19989;-67
2023/10/28 11:10:06;;;;;;;;;;;;;;;;;;5051295;28;20025;-69
2023/10/28 11:12:31;;;;;;;;;;;;;;;;;;5051481;28;20049;-67
2023/10/28 11:14:57;;;;;;;;;;;;;;;;;;5051354;28;19998;-68
2023/10/28 11:17:23;;;;;;;;;;;;;;;;;;5051465;28;20032;-67
2023/10/28 11:19:49;;;;;;;;;;;;;;;;;;5051026;28;20038;-68
2023/10/28 11:22:15;;;;;;;;;;;;;;;;;;5061459;28;19985;-68
2023/10/28 11:24:41;;;;;;;;;;;;;;;;;;5051336;28;19996;-67
2023/10/28 11:27:07;;;;;;;;;;;;;;;;;;5052546;28;19990;-67
2023/10/28 11:29:37;;;;;;;;;;;;;;;;;;5055358;28;20025;-67
2023/10/28 11:32:03;;;;;;;;;;;;;;;;;;5037381;28;20124;-67
2023/10/28 11:34:29;;;;;;;;;;;;;;;;;;5055771;28;20458;-65
2023/10/28 11:36:55;;;;;;;;;;;;;;;;;;5055088;28;19997;-65
2023/10/28 11:39:21;;;;;;;;;;;;;;;;;;5055240;28;20000;-66
2023/10/28 11:41:47;;;;;;;;;;;;;;;;;;5055656;28;20012;-67
2023/10/28 11:44:13;;;;;;;;;;;;;;;;;;5055285;28;19990;-68
2023/10/28 11:46:39;;;;;;;;;;;;;;;;;;5055183;28;19992;-67
2023/10/28 11:49:05;;;;;;;;;;;;;;;;;;5054934;28;19989;-66
2023/10/28 11:51:32;;;;;;;;;;;;;;;;;;5055054;28;20024;-68
2023/10/28 11:53:58;;;;;;;;;;;;;;;;;;5054781;28;20028;-66
2023/10/28 11:56:26;;;;;;;;;;;;;;;;;;5055050;28;20021;-66
2023/10/28 11:58:52;;;;;;;;;;;;;;;;;;5054977;28;20008;-67
2023/10/28 12:01:18;;;;;;;;;;;;;;;;;;5054730;28;19994;-67
2023/10/28 12:03:45;;;;;;;;;;;;;;;;;;5054994;28;20001;-70
2023/10/28 12:06:11;;;;;;;;;;;;;;;;;;5054985;28;19990;-68
2023/10/28 12:08:37;;;;;;;;;;;;;;;;;;5054899;28;19996;-70
2023/10/28 12:11:03;;;;;;;;;;;;;;;;;;5053647;28;20028;-70
2023/10/28 12:13:31;;;;;;;;;;;;;;;;;;5055671;28;19990;-69
2023/10/28 12:15:57;;;;;;;;;;;;;;;;;;5068799;28;19993;-68
2023/10/28 12:18:23;;;;;;;;;;;;;;;;;;5074431;28;20136;-67
2023/10/28 12:20:49;;;;;;;;;;;;;;;;;;5074330;28;19989;-69
2023/10/28 12:23:16;;;;;;;;;;;;;;;;;;5074571;28;19990;-69
2023/10/28 12:25:42;;;;;;;;;;;;;;;;;;5074737;28;20064;-68
2023/10/28 12:28:08;;;;;;;;;;;;;;;;;;5059614;28;20624;-69
2023/10/28 12:30:34;;;;;;;;;;;;;;;;;;5074326;28;20047;-68
2023/10/28 12:33:00;;;;;;;;;;;;;;;;;;5052696;28;20009;-68
2023/10/28 12:35:26;;;;;;;;;;;;;;;;;;5054394;28;20507;-68
2023/10/28 12:37:52;;;;;;;;;;;;;;;;;;5054193;28;20009;-68
2023/10/28 12:40:18;;;;;;;;;;;;;;;;;;5053419;28;19990;-68
2023/10/28 12:42:45;;;;;;;;;;;;;;;;;;5053680;28;19994;-68
2023/10/28 12:45:11;;;;;;;;;;;;;;;;;;5053813;28;19994;-68
2023/10/28 12:47:37;;;;;;;;;;;;;;;;;;5053563;28;19990;-69
2023/10/28 12:50:03;;;;;;;;;;;;;;;;;;5053996;28;19997;-67
2023/10/28 12:52:30;;;;;;;;;;;;;;;;;;5053727;28;20446;-67
2023/10/28 12:54:57;;;;;;;;;;;;;;;;;;5053456;28;19996;-67
2023/10/28 12:57:23;;;;;;;;;;;;;;;;;;5064029;28;19997;-68
2023/10/28 12:59:48;;;;;;;;;;;;;;;;;;5065141;28;20458;-67
2023/10/28 13:02:15;;;;;;;;;;;;;;;;;;5065804;28;19997;-69
2023/10/28 13:04:41;;;;;;;;;;;;;;;;;;5069338;28;20026;-68
2023/10/28 13:07:07;;;;;;;;;;;;;;;;;;5073700;28;20438;-67
2023/10/28 13:09:33;;;;;;;;;;;;;;;;;;5073284;28;19989;-67
2023/10/28 13:11:59;;;;;;;;;;;;;;;;;;5073533;28;20021;-69
2023/10/28 13:14:26;;;;;;;;;;;;;;;;;;5056041;28;20469;-68
2023/10/28 13:16:52;;;;;;;;;;;;;;;;;;5053501;28;20454;-67
2023/10/28 13:19:19;;;;;;;;;;;;;;;;;;5062681;28;20095;-67
2023/10/28 13:21:45;;;;;;;;;;;;;;;;;;5059761;28;19997;-67
2023/10/28 13:24:11;;;;;;;;;;;;;;;;;;5058048;28;20016;-68
2023/10/28 13:26:37;;;;;;;;;;;;;;;;;;5072440;28;19996;-67
2023/10/28 13:29:03;;;;;;;;;;;;;;;;;;5073187;28;20008;-69
2023/10/28 13:31:29;;;;;;;;;;;;;;;;;;5072979;28;20013;-68
2023/10/28 13:33:55;;;;;;;;;;;;;;;;;;5073002;28;20005;-67
2023/10/28 13:36:21;;;;;;;;;;;;;;;;;;5069287;28;20000;-67
2023/10/28 13:38:47;;;;;;;;;;;;;;;;;;5071917;28;19993;-68
2023/10/28 13:41:13;;;;;;;;;;;;;;;;;;5072875;28;19989;-68
2023/10/28 13:43:39;;;;;;;;;;;;;;;;;;5072666;28;20445;-68
2023/10/28 13:46:05;;;;;;;;;;;;;;;;;;5061032;28;20520;-67
2023/10/28 13:48:31;;;;;;;;;;;;;;;;;;5053078;28;20096;-67
2023/10/28 13:50:57;;;;;;;;;;;;;;;;;;5067794;28;20034;-67
2023/10/28 13:53:23;;;;;;;;;;;;;;;;;;5057496;28;19997;-68
2023/10/28 13:55:50;;;;;;;;;;;;;;;;;;5059124;28;20000;-68
2023/10/28 13:58:16;;;;;;;;;;;;;;;;;;5064776;28;20001;-68
2023/10/28 14:00:42;;;;;;;;;;;;;;;;;;5071631;28;19985;-70
2023/10/28 14:03:12;;;;;;;;;;;;;;;;;;5065019;28;20059;-68
2023/10/28 14:05:38;;;;;;;;;;;;;;;;;;5063373;28;20079;-69
2023/10/28 14:08:04;;;;;;;;;;;;;;;;;;5072291;28;20076;-68
2023/10/28 14:10:30;;;;;;;;;;;;;;;;;;5064218;28;20019;-68
2023/10/28 14:12:57;;;;;;;;;;;;;;;;;;5058673;28;20109;-68
2023/10/28 14:15:23;;;;;;;;;;;;;;;;;;5064032;28;19991;-68
2023/10/28 14:17:49;;;;;;;;;;;;;;;;;;5052092;28;19985;-68
2023/10/28 14:20:15;;;;;;;;;;;;;;;;;;5055028;28;20556;-69
2023/10/28 14:22:41;;;;;;;;;;;;;;;;;;5053180;28;19992;-68
2023/10/28 14:25:13;;;;;;;;;;;;;;;;;;5068034;28;19989;-69
2023/10/28 14:27:42;;;;;;;;;;;;;;;;;;5058832;28;19993;-69
2023/10/28 14:30:08;;;;;;;;;;;;;;;;;;5051854;28;20036;-69
2023/10/28 14:32:38;;;;;;;;;;;;;;;;;;5058460;28;20053;-68
2023/10/28 14:35:05;;;;;;;;;;;;;;;;;;5066820;28;20384;-69
2023/10/28 14:37:32;;;;;;;;;;;;;;;;;;5070792;28;20080;-68
2023/10/28 14:39:58;;;;;;;;;;;;;;;;;;5071791;28;20473;-69
2023/10/28 14:42:24;;;;;;;;;;;;;;;;;;5064848;28;20036;-68
2023/10/28 14:44:51;;;;;;;;;;;;;;;;;;5065838;28;19989;-68
2023/10/28 14:47:17;;;;;;;;;;;;;;;;;;5055970;28;20031;-68
2023/10/28 14:49:43;;;;;;;;;;;;;;;;;;5070796;28;20088;-67
2023/10/28 14:52:09;;;;;;;;;;;;;;;;;;5061715;28;20017;-68
2023/10/28 14:54:35;;;;;;;;;;;;;;;;;;5059567;28;20005;-67
2023/10/28 14:57:01;;;;;;;;;;;;;;;;;;5053991;28;19990;-67
2023/10/28 14:59:28;;;;;;;;;;;;;;;;;;5051585;28;19993;-67
2023/10/28 15:01:54;;;;;;;;;;;;;;;;;;5043319;28;19989;-68
2023/10/28 15:04:20;;;;;;;;;;;;;;;;;;5052608;28;19997;-67
2023/10/28 15:06:47;;;;;;;;;;;;;;;;;;5065595;28;20085;-68
2023/10/28 15:09:13;;;;;;;;;;;;;;;;;;5071424;28;20080;-68
2023/10/28 15:11:39;;;;;;;;;;;;;;;;;;5063593;28;20116;-68
2023/10/28 15:14:07;;;;;;;;;;;;;;;;;;5050635;28;20519;-67
2023/10/28 15:16:33;;;;;;;;;;;;;;;;;;5051820;28;19994;-68
2023/10/28 15:18:59;;;;;;;;;;;;;;;;;;5059695;28;19998;-68
2023/10/28 15:21:25;;;;;;;;;;;;;;;;;;5051373;28;20461;-68
2023/10/28 15:23:52;;;;;;;;;;;;;;;;;;5051232;28;19993;-68
2023/10/28 15:26:18;;;;;;;;;;;;;;;;;;5054876;28;19989;-68
2023/10/28 15:28:44;;;;;;;;;;;;;;;;;;5058079;28;19994;-68
2023/10/28 15:31:10;;;;;;;;;;;;;;;;;;5058623;28;20009;-68
2023/10/28 15:33:36;;;;;;;;;;;;;;;;;;5071050;28;20618;-68
2023/10/28 15:36:02;;;;;;;;;;;;;;;;;;5064265;28;20067;-67
2023/10/28 15:38:28;;;;;;;;;;;;;;;;;;5071320;28;19985;-69
2023/10/28 15:40:54;;;;;;;;;;;;;;;;;;5068743;28;19993;-68
2023/10/28 15:43:20;;;;;;;;;;;;;;;;;;5071171;28;20134;-67
2023/10/28 15:45:46;;;;;;;;;;;;;;;;;;5071232;28;20127;-68
2023/10/28 15:48:12;;;;;;;;;;;;;;;;;;5071436;28;19994;-69
2023/10/28 15:50:38;;;;;;;;;;;;;;;;;;5065569;28;20000;-70
2023/10/28 15:53:04;;;;;;;;;;;;;;;;;;5055764;28;19997;-69
2023/10/28 15:55:30;;;;;;;;;;;;;;;;;;5071139;28;20449;-68
2023/10/28 15:57:56;;;;;;;;;;;;;;;;;;5071274;28;20089;-68
2023/10/28 16:00:22;;;;;;;;;;;;;;;;;;5055198;28;20378;-67
2023/10/28 16:02:48;;;;;;;;;;;;;;;;;;5064955;28;19993;-68
2023/10/28 16:05:14;;;;;;;;;;;;;;;;;;5070767;28;19993;-67
2023/10/28 16:07:39;;;;;;;;;;;;;;;;;;5066832;28;20456;-76
2023/10/28 16:10:05;;;;;;;;;;;;;;;;;;5061388;28;20056;-72
2023/10/28 16:12:31;;;;;;;;;;;;;;;;;;5050163;28;20438;-73
2023/10/28 16:14:57;;;;;;;;;;;;;;;;;;5056889;28;19993;-72
2023/10/28 16:17:23;;;;;;;;;;;;;;;;;;5052932;28;20618;-72
2023/10/28 16:19:49;;;;;;;;;;;;;;;;;;5055826;28;20000;-73
2023/10/28 16:22:15;;;;;;;;;;;;;;;;;;5067322;28;20033;-72
2023/10/28 16:24:41;;;;;;;;;;;;;;;;;;5065978;28;19996;-72
2023/10/28 16:27:07;;;;;;;;;;;;;;;;;;5074385;28;20361;-72
2023/10/28 16:29:33;;;;;;;;;;;;;;;;;;5068833;28;20365;-70
2023/10/28 16:31:59;;;;;;;;;;;;;;;;;;5053494;28;20436;-70
2023/10/28 16:34:25;;;;;;;;;;;;;;;;;;5058164;28;19989;-71
2023/10/28 16:36:53;;;;;;;;;;;;;;;;;;5060930;28;20017;-69
2023/10/28 16:39:19;;;;;;;;;;;;;;;;;;5056956;28;20069;-69